Time;durP1;ratioP1;P1;durP2;ratioP2;P2;SDS_P1;SDS_P2;PMS_P1;PMS_P2;Temp;Humidity;BMP_temperature;BMP_pressure;BME280_temperature;BME280_humidity;BME280_pressure;Samples;Min_cycle;Max_cycle;Signal;HPM_P1;HPM_P2
2022/07/29 00:00:23;;;;;;;3.33;2.05;;;;;;;;;;4880388;29;20426;-66
2022/07/29 00:02:49;;;;;;;5.40;1.90;;;;;;;;;;4880338;29;20032;-66
2022/07/29 00:05:16;;;;;;;2.63;1.90;;;;;;;;;;4879982;29;20039;-66
2022/07/29 00:07:43;;;;;;;4.65;2.08;;;;;;;;;;4883095;29;20028;-67
2022/07/29 00:10:09;;;;;;;6.47;1.90;;;;;;;;;;4863603;29;20037;-66
2022/07/29 00:12:35;;;;;;;7.40;2.17;;;;;;;;;;4880463;29;20033;-67
2022/07/29 00:15:03;;;;;;;3.75;2.10;;;;;;;;;;4879517;29;20013;-66
2022/07/29 00:17:29;;;;;;;4.30;2.75;;;;;;;;;;4880123;29;20059;-66
2022/07/29 00:19:56;;;;;;;5.72;2.00;;;;;;;;;;4879736;29;20029;-67
2022/07/29 00:22:22;;;;;;;3.47;1.90;;;;;;;;;;4880288;29;20037;-67
2022/07/29 00:24:49;;;;;;;4.28;2.00;;;;;;;;;;4879992;29;20029;-67
2022/07/29 00:27:15;;;;;;;3.10;1.75;;;;;;;;;;4880023;29;20033;-66
2022/07/29 00:29:41;;;;;;;3.95;1.95;;;;;;;;;;4879957;29;20025;-67
2022/07/29 00:32:07;;;;;;;6.97;1.98;;;;;;;;;;4879625;29;20041;-67
2022/07/29 00:37:19;;;;;;;10.35;2.22;;;;;;;;;;4879690;29;20043;-67
2022/07/29 00:39:45;;;;;;;3.67;1.80;;;;;;;;;;4879911;29;20078;-67
2022/07/29 00:42:11;;;;;;;8.15;1.85;;;;;;;;;;4880078;29;20035;-66
2022/07/29 00:44:39;;;;;;;2.58;1.92;;;;;;;;;;4879475;29;20021;-67
2022/07/29 00:47:05;;;;;;;5.18;2.28;;;;;;;;;;4879622;29;20443;-67
2022/07/29 00:49:32;;;;;;;4.78;2.00;;;;;;;;;;4879320;29;20398;-67
2022/07/29 00:51:58;;;;;;;6.30;2.33;;;;;;;;;;4879417;29;20048;-66
2022/07/29 00:54:26;;;;;;;3.80;2.00;;;;;;;;;;4879607;29;20035;-66
2022/07/29 00:56:53;;;;;;;4.78;2.10;;;;;;;;;;4879333;29;20021;-66
2022/07/29 00:59:19;;;;;;;2.40;1.75;;;;;;;;;;4879359;29;20475;-66
2022/07/29 01:01:46;;;;;;;5.75;2.20;;;;;;;;;;4879353;29;20483;-66
2022/07/29 01:04:12;;;;;;;4.90;1.73;;;;;;;;;;4878939;29;20073;-66
2022/07/29 01:06:39;;;;;;;3.55;1.80;;;;;;;;;;4882082;29;20029;-66
2022/07/29 01:09:06;;;;;;;2.85;1.90;;;;;;;;;;4862499;29;20035;-66
2022/07/29 01:11:33;;;;;;;3.28;1.40;;;;;;;;;;4879081;29;20044;-66
2022/07/29 01:14:00;;;;;;;6.35;2.10;;;;;;;;;;4879077;29;20033;-66
2022/07/29 01:16:31;;;;;;;6.32;1.77;;;;;;;;;;4879072;29;20398;-66
2022/07/29 01:19:01;;;;;;;8.20;1.90;;;;;;;;;;4878845;29;20025;-67
2022/07/29 01:21:30;;;;;;;5.75;2.10;;;;;;;;;;4878722;29;20033;-66
2022/07/29 01:23:56;;;;;;;3.35;1.60;;;;;;;;;;4878896;29;20052;-66
2022/07/29 01:26:49;;;;;;;4.28;1.92;;;;;;;;;;4879058;29;20025;-67
2022/07/29 01:29:24;;;;;;;4.10;1.80;;;;;;;;;;4803261;29;20043;-66
2022/07/29 01:32:02;;;;;;;5.43;2.30;;;;;;;;;;4803090;29;20038;-66
2022/07/29 01:34:36;;;;;;;5.32;2.00;;;;;;;;;;4803533;29;20038;-66
2022/07/29 01:37:22;;;;;;;7.25;2.10;;;;;;;;;;4803180;29;20060;-66
2022/07/29 01:39:51;;;;;;;4.85;2.05;;;;;;;;;;4773273;29;20041;-67
2022/07/29 01:42:29;;;;;;;7.25;2.03;;;;;;;;;;4803342;29;20046;-67
2022/07/29 01:45:02;;;;;;;3.30;2.00;;;;;;;;;;4788260;29;20506;-66
2022/07/29 01:47:39;;;;;;;4.68;2.10;;;;;;;;;;4802793;29;20043;-66
2022/07/29 01:50:07;;;;;;;6.35;2.42;;;;;;;;;;4803183;29;20409;-67
2022/07/29 01:52:38;;;;;;;4.50;2.05;;;;;;;;;;4803398;29;20067;-66
2022/07/29 01:55:08;;;;;;;4.38;1.98;;;;;;;;;;4803390;29;20027;-66
2022/07/29 01:57:35;;;;;;;3.53;1.92;;;;;;;;;;4788188;29;20038;-66
2022/07/29 02:00:03;;;;;;;4.75;2.08;;;;;;;;;;4802977;29;20065;-67
2022/07/29 02:02:30;;;;;;;7.60;2.00;;;;;;;;;;4802865;29;20038;-66
2022/07/29 02:04:57;;;;;;;7.88;2.17;;;;;;;;;;4790568;29;20054;-66
2022/07/29 02:07:25;;;;;;;3.00;1.80;;;;;;;;;;4848969;29;20082;-66
2022/07/29 02:09:52;;;;;;;5.28;2.20;;;;;;;;;;4841226;29;20032;-67
2022/07/29 02:12:19;;;;;;;9.02;2.22;;;;;;;;;;4841615;29;20036;-67
2022/07/29 02:14:48;;;;;;;5.70;2.13;;;;;;;;;;4841375;29;20018;-66
2022/07/29 02:17:18;;;;;;;4.10;1.88;;;;;;;;;;4841286;29;20034;-66
2022/07/29 02:19:44;;;;;;;5.07;2.20;;;;;;;;;;4841414;29;20030;-66
2022/07/29 02:22:11;;;;;;;5.55;2.28;;;;;;;;;;4841630;29;20022;-66
2022/07/29 02:24:40;;;;;;;2.63;1.58;;;;;;;;;;4841437;29;20038;-67
2022/07/29 02:27:07;;;;;;;3.38;1.90;;;;;;;;;;4840139;29;20395;-67
2022/07/29 02:29:35;;;;;;;3.30;1.98;;;;;;;;;;4840977;29;20034;-66
2022/07/29 02:32:01;;;;;;;4.28;1.73;;;;;;;;;;4841108;29;20046;-66
2022/07/29 02:34:28;;;;;;;3.40;2.20;;;;;;;;;;4841197;29;20026;-67
2022/07/29 02:36:55;;;;;;;1.98;1.77;;;;;;;;;;4841452;29;20036;-66
2022/07/29 02:39:23;;;;;;;3.53;1.85;;;;;;;;;;4844827;29;20030;-66
2022/07/29 02:41:51;;;;;;;6.70;1.90;;;;;;;;;;4844862;29;20480;-66
2022/07/29 02:44:19;;;;;;;3.63;1.98;;;;;;;;;;4844539;29;20034;-67
2022/07/29 02:46:54;;;;;;;5.28;1.98;;;;;;;;;;4844957;29;20034;-66
2022/07/29 02:49:26;;;;;;;3.67;2.00;;;;;;;;;;4843501;29;20089;-67
2022/07/29 02:51:58;;;;;;;3.55;1.85;;;;;;;;;;4844704;29;20041;-66
2022/07/29 02:54:43;;;;;;;5.45;2.08;;;;;;;;;;4844702;29;20070;-66
2022/07/29 02:57:20;;;;;;;3.03;1.88;;;;;;;;;;4844486;29;20032;-66
2022/07/29 02:59:48;;;;;;;6.32;2.10;;;;;;;;;;4844223;29;20050;-66
2022/07/29 03:02:15;;;;;;;3.33;1.83;;;;;;;;;;4844848;29;20022;-66
2022/07/29 03:04:42;;;;;;;4.68;1.98;;;;;;;;;;4874411;29;20522;-66
2022/07/29 03:07:09;;;;;;;6.35;1.98;;;;;;;;;;4884382;29;20025;-66
2022/07/29 03:09:36;;;;;;;5.70;2.00;;;;;;;;;;4881681;29;20029;-66
2022/07/29 03:12:04;;;;;;;5.18;2.20;;;;;;;;;;4881213;29;20049;-67
2022/07/29 03:14:30;;;;;;;8.23;2.28;;;;;;;;;;4881037;29;20036;-66
2022/07/29 03:16:57;;;;;;;1.77;1.67;;;;;;;;;;4881210;29;20035;-66
2022/07/29 03:19:23;;;;;;;3.10;1.80;;;;;;;;;;4881427;29;20029;-66
2022/07/29 03:21:50;;;;;;;3.05;1.80;;;;;;;;;;4881035;29;20501;-66
2022/07/29 03:24:32;;;;;;;5.75;2.15;;;;;;;;;;4881113;29;20021;-66
2022/07/29 03:26:59;;;;;;;4.85;2.15;;;;;;;;;;4881011;29;20494;-66
2022/07/29 03:29:26;;;;;;;4.32;1.90;;;;;;;;;;4880681;29;20447;-67
2022/07/29 03:31:52;;;;;;;4.75;1.90;;;;;;;;;;4881212;29;20052;-66
2022/07/29 03:34:18;;;;;;;2.80;1.65;;;;;;;;;;4881191;29;20021;-66
2022/07/29 03:36:45;;;;;;;3.13;1.63;;;;;;;;;;4880758;29;20394;-66
2022/07/29 03:39:12;;;;;;;3.08;1.50;;;;;;;;;;4880765;29;20475;-66
2022/07/29 03:41:41;;;;;;;5.38;2.05;;;;;;;;;;4880963;29;20032;-66
2022/07/29 03:44:08;;;;;;;3.03;1.85;;;;;;;;;;4880553;29;20031;-66
2022/07/29 03:46:35;;;;;;;2.60;1.67;;;;;;;;;;4880625;29;20044;-67
2022/07/29 03:49:03;;;;;;;4.13;1.90;;;;;;;;;;4879504;29;20029;-66
2022/07/29 03:51:30;;;;;;;4.90;1.90;;;;;;;;;;4880497;29;20043;-66
2022/07/29 03:53:56;;;;;;;12.95;2.45;;;;;;;;;;4880845;29;20029;-66
2022/07/29 03:56:22;;;;;;;5.93;2.30;;;;;;;;;;4880132;29;20029;-66
2022/07/29 03:58:52;;;;;;;5.32;2.03;;;;;;;;;;4880468;29;20029;-66
2022/07/29 04:01:19;;;;;;;4.68;2.17;;;;;;;;;;4880383;29;20032;-66
2022/07/29 04:03:46;;;;;;;4.30;1.80;;;;;;;;;;4880280;29;20057;-66
2022/07/29 04:06:12;;;;;;;3.72;1.95;;;;;;;;;;4882036;29;20364;-66
2022/07/29 04:08:38;;;;;;;4.53;2.05;;;;;;;;;;4881283;29;20029;-66
2022/07/29 04:11:05;;;;;;;6.47;2.10;;;;;;;;;;4879981;29;20041;-66
2022/07/29 04:13:32;;;;;;;2.97;2.03;;;;;;;;;;4880219;29;20051;-67
2022/07/29 04:15:59;;;;;;;4.40;2.13;;;;;;;;;;4880061;29;20025;-66
2022/07/29 04:18:25;;;;;;;4.22;2.13;;;;;;;;;;4880523;29;20025;-66
2022/07/29 04:20:52;;;;;;;2.95;1.98;;;;;;;;;;4880136;29;20024;-66
2022/07/29 04:23:18;;;;;;;7.03;2.25;;;;;;;;;;4880194;29;20043;-66
2022/07/29 04:25:44;;;;;;;3.80;1.98;;;;;;;;;;4879871;29;20032;-67
2022/07/29 04:28:11;;;;;;;4.15;1.90;;;;;;;;;;4879887;29;20029;-66
2022/07/29 04:30:37;;;;;;;4.10;1.80;;;;;;;;;;4879825;29;20047;-66
2022/07/29 04:33:05;;;;;;;6.68;2.50;;;;;;;;;;4879847;29;20036;-66
2022/07/29 04:35:34;;;;;;;3.50;2.00;;;;;;;;;;4879812;29;20509;-66
2022/07/29 04:38:00;;;;;;;8.45;2.10;;;;;;;;;;4879876;29;20027;-66
2022/07/29 04:40:27;;;;;;;5.80;2.03;;;;;;;;;;4879363;29;20055;-66
2022/07/29 04:42:53;;;;;;;5.45;2.22;;;;;;;;;;4879667;29;20033;-66
2022/07/29 04:45:20;;;;;;;3.50;2.05;;;;;;;;;;4879607;29;20047;-66
2022/07/29 04:47:46;;;;;;;4.10;2.17;;;;;;;;;;4879688;29;20025;-66
2022/07/29 04:50:12;;;;;;;7.05;2.22;;;;;;;;;;4879560;29;20152;-66
2022/07/29 04:52:39;;;;;;;3.63;2.20;;;;;;;;;;4879472;29;20029;-66
2022/07/29 04:55:05;;;;;;;10.07;2.30;;;;;;;;;;4862689;29;20025;-67
2022/07/29 04:57:32;;;;;;;8.38;2.28;;;;;;;;;;4879741;29;20044;-66
2022/07/29 04:59:58;;;;;;;7.32;2.28;;;;;;;;;;4879131;29;20021;-66
2022/07/29 05:02:24;;;;;;;9.52;2.20;;;;;;;;;;4879326;29;20037;-66
2022/07/29 05:04:51;;;;;;;5.85;2.63;;;;;;;;;;4879268;29;20045;-66
2022/07/29 05:07:17;;;;;;;4.47;2.08;;;;;;;;;;4881921;29;20029;-66
2022/07/29 05:09:43;;;;;;;4.70;1.88;;;;;;;;;;4879237;29;20029;-66
2022/07/29 05:12:10;;;;;;;11.20;2.40;;;;;;;;;;4879193;29;20040;-66
2022/07/29 05:14:36;;;;;;;8.20;2.17;;;;;;;;;;4879074;29;20017;-66
2022/07/29 05:17:03;;;;;;;9.65;6.97;;;;;;;;;;4879146;29;20021;-67
2022/07/29 05:19:29;;;;;;;7.57;3.00;;;;;;;;;;4879453;29;20457;-66
2022/07/29 05:21:55;;;;;;;3.13;2.25;;;;;;;;;;4878931;29;20029;-67
2022/07/29 05:24:22;;;;;;;3.45;2.28;;;;;;;;;;4878618;29;20025;-66
2022/07/29 05:26:48;;;;;;;4.68;2.17;;;;;;;;;;4879016;29;20517;-66
2022/07/29 05:29:15;;;;;;;5.10;2.25;;;;;;;;;;4878962;29;20023;-66
2022/07/29 05:31:41;;;;;;;4.45;2.25;;;;;;;;;;4878839;29;20038;-66
2022/07/29 05:34:07;;;;;;;3.83;2.42;;;;;;;;;;4862544;29;20048;-66
2022/07/29 05:36:33;;;;;;;5.22;2.40;;;;;;;;;;4878775;29;20478;-67
2022/07/29 05:39:00;;;;;;;2.47;1.90;;;;;;;;;;4878760;29;20031;-66
2022/07/29 05:41:26;;;;;;;6.15;2.15;;;;;;;;;;4878655;29;20394;-66
2022/07/29 05:43:53;;;;;;;8.40;2.03;;;;;;;;;;4878902;29;20021;-66
2022/07/29 05:46:19;;;;;;;6.95;2.33;;;;;;;;;;4878614;29;20031;-66
2022/07/29 05:48:45;;;;;;;9.55;2.55;;;;;;;;;;4878535;29;20035;-66
2022/07/29 05:51:11;;;;;;;7.10;2.58;;;;;;;;;;4878605;29;20506;-66
2022/07/29 05:53:38;;;;;;;7.38;2.53;;;;;;;;;;4878640;29;20029;-66
2022/07/29 05:56:05;;;;;;;10.77;2.40;;;;;;;;;;4878587;29;20034;-66
2022/07/29 05:58:31;;;;;;;6.15;2.40;;;;;;;;;;4878670;29;20025;-66
2022/07/29 06:00:59;;;;;;;8.20;2.60;;;;;;;;;;4878414;29;20029;-66
2022/07/29 06:03:25;;;;;;;8.82;2.42;;;;;;;;;;4874946;29;20049;-66
2022/07/29 06:05:52;;;;;;;9.02;2.53;;;;;;;;;;4857221;29;20049;-62
2022/07/29 06:08:19;;;;;;;10.80;2.50;;;;;;;;;;4875664;29;20037;-61
2022/07/29 06:10:45;;;;;;;14.02;2.90;;;;;;;;;;4888394;29;20529;-61
2022/07/29 06:13:12;;;;;;;87.22;10.10;;;;;;;;;;4865630;29;20036;-61
2022/07/29 06:15:38;;;;;;;11.20;3.20;;;;;;;;;;4868100;29;20069;-62
2022/07/29 06:18:08;;;;;;;7.45;2.60;;;;;;;;;;4862201;29;20030;-61
2022/07/29 06:20:35;;;;;;;12.47;2.90;;;;;;;;;;4876606;29;20029;-61
2022/07/29 06:23:04;;;;;;;6.63;2.70;;;;;;;;;;4877757;29;20266;-62
2022/07/29 06:25:30;;;;;;;7.53;2.95;;;;;;;;;;4865539;29;20028;-61
2022/07/29 06:27:57;;;;;;;7.50;3.05;;;;;;;;;;4858987;29;20069;-62
2022/07/29 06:30:24;;;;;;;5.13;2.80;;;;;;;;;;4859031;29;20022;-62
2022/07/29 06:32:50;;;;;;;10.65;3.05;;;;;;;;;;4842408;29;20030;-62
2022/07/29 06:35:17;;;;;;;18.48;3.75;;;;;;;;;;4858583;29;20032;-62
2022/07/29 06:37:43;;;;;;;10.65;3.85;;;;;;;;;;4875075;29;20025;-61
2022/07/29 06:42:54;;;;;;;8.90;3.08;;;;;;;;;;4877545;29;20029;-61
2022/07/29 06:45:21;;;;;;;10.38;2.88;;;;;;;;;;4877225;29;20511;-62
2022/07/29 06:47:48;;;;;;;5.55;3.03;;;;;;;;;;4860798;29;20033;-62
2022/07/29 06:50:14;;;;;;;10.93;3.45;;;;;;;;;;4877818;29;20505;-62
2022/07/29 06:52:41;;;;;;;7.85;3.00;;;;;;;;;;4876917;29;20490;-62
2022/07/29 06:55:08;;;;;;;9.30;3.08;;;;;;;;;;4868711;29;20032;-62
2022/07/29 06:57:34;;;;;;;6.63;2.78;;;;;;;;;;4873900;29;20088;-62
2022/07/29 07:00:01;;;;;;;5.38;3.13;;;;;;;;;;4877466;29;20027;-61
2022/07/29 07:02:27;;;;;;;6.00;2.92;;;;;;;;;;4877295;29;20497;-61
2022/07/29 07:04:53;;;;;;;4.53;2.83;;;;;;;;;;4876890;29;20045;-62
2022/07/29 07:07:20;;;;;;;8.02;3.47;;;;;;;;;;4880049;29;20041;-62
2022/07/29 07:09:46;;;;;;;6.78;3.10;;;;;;;;;;4877740;29;20025;-62
2022/07/29 07:12:12;;;;;;;10.10;3.33;;;;;;;;;;4872645;29;20044;-62
2022/07/29 07:14:40;;;;;;;11.95;3.70;;;;;;;;;;4865976;29;20021;-62
2022/07/29 07:17:07;;;;;;;5.50;3.50;;;;;;;;;;4863690;29;20025;-62
2022/07/29 07:19:33;;;;;;;11.60;3.65;;;;;;;;;;4860040;29;20103;-62
2022/07/29 07:22:00;;;;;;;8.43;3.50;;;;;;;;;;4877213;29;20029;-62
2022/07/29 07:24:26;;;;;;;5.15;3.30;;;;;;;;;;4879467;29;20051;-62
2022/07/29 07:26:52;;;;;;;4.75;2.97;;;;;;;;;;4880711;29;20033;-62
2022/07/29 07:29:19;;;;;;;8.63;3.13;;;;;;;;;;4880656;29;20024;-62
2022/07/29 07:31:45;;;;;;;5.22;2.88;;;;;;;;;;4880203;29;20494;-61
2022/07/29 07:34:12;;;;;;;7.10;3.10;;;;;;;;;;4863857;29;20035;-61
2022/07/29 07:36:38;;;;;;;10.63;3.15;;;;;;;;;;4880645;29;20088;-61
2022/07/29 07:39:05;;;;;;;9.38;3.10;;;;;;;;;;4879908;29;20029;-62
2022/07/29 07:41:31;;;;;;;6.60;3.70;;;;;;;;;;4880819;29;20024;-62
2022/07/29 07:43:58;;;;;;;10.98;3.80;;;;;;;;;;4880130;29;20553;-62
2022/07/29 07:46:25;;;;;;;18.63;3.95;;;;;;;;;;4880820;29;20100;-63
2022/07/29 07:48:52;;;;;;;10.50;3.22;;;;;;;;;;4880320;29;20028;-61
2022/07/29 07:51:18;;;;;;;10.88;3.15;;;;;;;;;;4874803;29;20080;-62
2022/07/29 07:53:44;;;;;;;5.53;3.17;;;;;;;;;;4869586;29;20107;-62
2022/07/29 07:56:11;;;;;;;7.30;3.50;;;;;;;;;;4876035;29;20444;-62
2022/07/29 07:58:38;;;;;;;8.90;3.35;;;;;;;;;;4878620;29;20029;-62
2022/07/29 08:01:04;;;;;;;7.53;3.30;;;;;;;;;;4863630;29;20025;-62
2022/07/29 08:03:30;;;;;;;5.90;3.45;;;;;;;;;;4879734;29;20078;-62
2022/07/29 08:05:57;;;;;;;6.25;3.53;;;;;;;;;;4880131;29;20031;-62
2022/07/29 08:08:23;;;;;;;11.02;3.75;;;;;;;;;;4879604;29;20037;-62
2022/07/29 08:10:53;;;;;;;6.93;3.50;;;;;;;;;;4884535;29;20108;-62
2022/07/29 08:13:23;;;;;;;7.15;3.90;;;;;;;;;;4863219;29;20033;-62
2022/07/29 08:16:10;;;;;;;7.72;3.95;;;;;;;;;;4879583;29;20489;-62
2022/07/29 08:18:37;;;;;;;9.80;4.00;;;;;;;;;;4879612;29;20088;-61
2022/07/29 08:21:04;;;;;;;9.85;3.88;;;;;;;;;;4879877;29;20033;-62
2022/07/29 08:23:38;;;;;;;10.52;4.47;;;;;;;;;;4879900;29;20021;-61
2022/07/29 08:26:05;;;;;;;7.07;4.00;;;;;;;;;;4870983;29;20026;-62
2022/07/29 08:28:31;;;;;;;10.00;4.50;;;;;;;;;;4875132;29;20025;-62
2022/07/29 08:30:58;;;;;;;13.80;3.80;;;;;;;;;;4877677;29;20394;-62
2022/07/29 08:33:24;;;;;;;9.05;3.65;;;;;;;;;;4862301;29;20035;-61
2022/07/29 08:35:50;;;;;;;7.80;3.72;;;;;;;;;;4877247;29;20053;-62
2022/07/29 08:38:16;;;;;;;7.97;3.22;;;;;;;;;;4879702;29;20409;-63
2022/07/29 08:40:43;;;;;;;6.07;3.47;;;;;;;;;;4871248;29;20035;-62
2022/07/29 08:43:09;;;;;;;7.75;3.45;;;;;;;;;;4860886;29;20045;-62
2022/07/29 08:45:45;;;;;;;9.38;3.90;;;;;;;;;;4860906;29;20418;-62
2022/07/29 08:48:13;;;;;;;5.97;3.38;;;;;;;;;;4860939;29;20018;-62
2022/07/29 08:50:41;;;;;;;4.68;3.10;;;;;;;;;;4860834;29;20064;-62
2022/07/29 08:53:08;;;;;;;9.20;3.63;;;;;;;;;;4870850;29;20455;-62
2022/07/29 08:55:34;;;;;;;5.45;3.28;;;;;;;;;;4879155;29;20029;-62
2022/07/29 08:58:01;;;;;;;10.77;3.42;;;;;;;;;;4879134;29;20458;-62
2022/07/29 09:00:28;;;;;;;6.35;2.90;;;;;;;;;;4879196;29;20065;-61
2022/07/29 09:02:57;;;;;;;8.52;3.20;;;;;;;;;;4862192;29;20518;-62
2022/07/29 09:05:24;;;;;;;9.13;3.60;;;;;;;;;;4879172;29;20039;-62
2022/07/29 09:07:51;;;;;;;8.55;3.25;;;;;;;;;;4881920;29;20025;-62
2022/07/29 09:10:17;;;;;;;8.57;2.70;;;;;;;;;;4879095;29;20025;-62
2022/07/29 09:12:44;;;;;;;7.93;3.20;;;;;;;;;;4878855;29;20036;-62
2022/07/29 09:15:10;;;;;;;9.02;4.00;;;;;;;;;;4878814;29;20032;-63
2022/07/29 09:17:41;;;;;;;7.72;4.25;;;;;;;;;;4878562;29;20394;-62
2022/07/29 09:20:15;;;;;;;8.15;3.47;;;;;;;;;;4878308;29;20093;-62
2022/07/29 09:22:41;;;;;;;10.60;3.42;;;;;;;;;;4878644;29;20025;-62
2022/07/29 09:25:08;;;;;;;6.68;3.40;;;;;;;;;;4878403;29;20517;-62
2022/07/29 09:27:35;;;;;;;7.55;3.03;;;;;;;;;;4878430;29;20022;-62
2022/07/29 09:30:01;;;;;;;6.40;2.97;;;;;;;;;;4865405;29;20033;-62
2022/07/29 09:32:29;;;;;;;5.07;2.70;;;;;;;;;;4860033;29;20427;-62
2022/07/29 09:35:14;;;;;;;8.23;2.55;;;;;;;;;;4860199;29;20104;-62
2022/07/29 09:37:40;;;;;;;8.13;3.00;;;;;;;;;;4860044;29;20032;-62
2022/07/29 09:40:13;;;;;;;5.95;2.60;;;;;;;;;;4859998;29;20402;-62
2022/07/29 09:42:40;;;;;;;5.80;2.28;;;;;;;;;;4858705;29;20027;-62
2022/07/29 09:45:06;;;;;;;5.60;2.67;;;;;;;;;;4858747;29;20036;-62
2022/07/29 09:47:44;;;;;;;8.90;2.70;;;;;;;;;;4864965;29;20033;-62
2022/07/29 09:50:11;;;;;;;4.18;2.60;;;;;;;;;;4859946;29;20024;-62
2022/07/29 09:52:47;;;;;;;7.07;2.65;;;;;;;;;;4865671;29;20041;-62
2022/07/29 09:55:13;;;;;;;3.78;2.33;;;;;;;;;;4876798;29;20024;-62
2022/07/29 09:57:40;;;;;;;8.65;2.75;;;;;;;;;;4877208;29;20036;-61
2022/07/29 10:00:08;;;;;;;6.50;2.95;;;;;;;;;;4861282;29;20040;-62
2022/07/29 10:02:35;;;;;;;8.02;3.38;;;;;;;;;;4875980;29;20368;-72
2022/07/29 10:05:02;;;;;;;7.95;2.60;;;;;;;;;;4868511;29;20053;-72
2022/07/29 10:07:44;;;;;;;5.57;2.60;;;;;;;;;;4873879;29;20029;-72
2022/07/29 10:10:10;;;;;;;4.68;2.10;;;;;;;;;;4878284;29;20039;-72
2022/07/29 10:12:49;;;;;;;3.90;2.38;;;;;;;;;;4878167;29;20041;-72
2022/07/29 10:15:15;;;;;;;4.32;2.30;;;;;;;;;;4877799;29;20021;-72
2022/07/29 10:17:42;;;;;;;5.28;2.30;;;;;;;;;;4878162;29;20402;-72
2022/07/29 10:20:09;;;;;;;4.25;2.30;;;;;;;;;;4878139;29;20060;-72
2022/07/29 10:22:35;;;;;;;7.20;2.10;;;;;;;;;;4878411;29;20028;-72
2022/07/29 10:25:02;;;;;;;8.10;2.20;;;;;;;;;;4878252;29;20029;-72
2022/07/29 10:27:28;;;;;;;3.05;2.33;;;;;;;;;;4878121;29;20088;-72
2022/07/29 10:29:54;;;;;;;4.78;1.83;;;;;;;;;;4877695;29;20037;-72
2022/07/29 10:32:26;;;;;;;5.38;2.00;;;;;;;;;;4878147;29;20383;-73
2022/07/29 10:35:10;;;;;;;3.65;1.80;;;;;;;;;;4878353;29;20025;-73
2022/07/29 10:37:45;;;;;;;7.53;1.98;;;;;;;;;;4875790;29;20025;-73
2022/07/29 10:43:10;;;;;;;6.07;1.92;;;;;;;;;;4877532;29;20033;-73
2022/07/29 10:45:37;;;;;;;8.15;1.80;;;;;;;;;;4861127;29;20044;-72
2022/07/29 10:48:06;;;;;;;4.43;2.53;;;;;;;;;;4877770;29;20025;-72
2022/07/29 10:50:51;;;;;;;6.78;2.15;;;;;;;;;;4860942;29;20506;-72
2022/07/29 10:53:17;;;;;;;4.28;2.03;;;;;;;;;;4877409;29;20024;-71
2022/07/29 10:55:46;;;;;;;3.58;1.98;;;;;;;;;;4877328;29;20029;-72
2022/07/29 10:58:13;;;;;;;2.88;1.80;;;;;;;;;;4877692;29;20043;-71
2022/07/29 11:00:39;;;;;;;2.45;1.85;;;;;;;;;;4881278;29;20039;-71
2022/07/29 11:03:06;;;;;;;3.45;2.10;;;;;;;;;;4881363;29;20045;-71
2022/07/29 11:05:51;;;;;;;4.07;2.15;;;;;;;;;;4864553;29;20036;-71
2022/07/29 11:08:21;;;;;;;5.00;2.17;;;;;;;;;;4883926;29;20186;-71
2022/07/29 11:10:48;;;;;;;6.50;2.10;;;;;;;;;;4881153;29;20331;-71
2022/07/29 11:13:34;;;;;;;4.00;2.10;;;;;;;;;;4881000;29;20126;-72
2022/07/29 11:16:01;;;;;;;3.67;1.88;;;;;;;;;;4880878;29;20513;-72
2022/07/29 11:18:27;;;;;;;3.13;1.73;;;;;;;;;;4881422;29;20036;-72
2022/07/29 11:20:54;;;;;;;4.55;1.83;;;;;;;;;;4881083;29;20040;-72
2022/07/29 11:23:20;;;;;;;4.80;1.98;;;;;;;;;;4880993;29;20039;-72
2022/07/29 11:26:07;;;;;;;5.40;1.70;;;;;;;;;;4880550;29;20028;-70
2022/07/29 11:28:34;;;;;;;4.30;1.73;;;;;;;;;;4880611;29;20467;-71
2022/07/29 11:31:01;;;;;;;3.38;1.63;;;;;;;;;;4880749;29;20462;-72
2022/07/29 11:33:28;;;;;;;7.65;1.85;;;;;;;;;;4881062;29;20025;-72
2022/07/29 11:36:10;;;;;;;3.05;1.80;;;;;;;;;;4878973;29;20036;-71
2022/07/29 11:38:37;;;;;;;5.65;1.98;;;;;;;;;;4865064;29;20025;-72
2022/07/29 11:41:24;;;;;;;3.33;1.65;;;;;;;;;;4872503;29;20049;-72
2022/07/29 11:43:55;;;;;;;6.35;1.98;;;;;;;;;;4875482;29;20035;-72
2022/07/29 11:46:40;;;;;;;2.38;1.77;;;;;;;;;;4870552;29;20047;-71
2022/07/29 11:49:06;;;;;;;2.65;1.80;;;;;;;;;;4880668;29;20080;-71
2022/07/29 11:51:33;;;;;;;3.78;1.73;;;;;;;;;;4867804;29;20128;-71
2022/07/29 11:53:59;;;;;;;2.95;1.90;;;;;;;;;;4879229;29;20036;-71
2022/07/29 11:56:26;;;;;;;4.10;1.90;;;;;;;;;;4879665;29;20465;-71
2022/07/29 11:59:03;;;;;;;2.40;1.63;;;;;;;;;;4880032;29;20029;-71
2022/07/29 12:01:30;;;;;;;3.22;1.90;;;;;;;;;;4848030;29;20096;-71
2022/07/29 12:04:03;;;;;;;4.63;2.10;;;;;;;;;;4879481;29;20071;-71
2022/07/29 12:06:30;;;;;;;7.03;2.00;;;;;;;;;;4882485;29;20113;-71
2022/07/29 12:08:57;;;;;;;5.30;1.85;;;;;;;;;;4879944;29;20033;-71
2022/07/29 12:11:23;;;;;;;7.65;1.70;;;;;;;;;;4878586;29;20040;-71
2022/07/29 12:13:53;;;;;;;4.97;1.75;;;;;;;;;;4879891;29;20033;-71
2022/07/29 12:16:20;;;;;;;4.83;1.83;;;;;;;;;;4879834;29;20031;-71
2022/07/29 12:18:59;;;;;;;3.22;1.60;;;;;;;;;;4877382;29;20025;-71
2022/07/29 12:21:25;;;;;;;3.08;1.70;;;;;;;;;;4871693;29;20030;-71
2022/07/29 12:23:55;;;;;;;4.90;1.98;;;;;;;;;;4860514;29;20490;-71
2022/07/29 12:26:22;;;;;;;7.72;2.15;;;;;;;;;;4873945;29;20037;-71
2022/07/29 12:28:49;;;;;;;2.85;1.70;;;;;;;;;;4879463;29;20041;-71
2022/07/29 12:31:15;;;;;;;6.30;1.88;;;;;;;;;;4862653;29;20069;-71
2022/07/29 12:33:42;;;;;;;4.03;1.77;;;;;;;;;;4879663;29;20029;-73
2022/07/29 12:36:09;;;;;;;3.17;1.70;;;;;;;;;;4879548;29;20033;-71
2022/07/29 12:38:35;;;;;;;3.13;1.88;;;;;;;;;;4865896;29;20252;-72
2022/07/29 12:41:03;;;;;;;9.50;1.83;;;;;;;;;;4872608;29;20024;-71
2022/07/29 12:43:29;;;;;;;3.17;1.60;;;;;;;;;;4880006;29;20025;-72
2022/07/29 12:45:57;;;;;;;4.05;1.95;;;;;;;;;;4878813;29;20037;-72
2022/07/29 12:48:36;;;;;;;4.60;1.83;;;;;;;;;;4878984;29;20033;-71
2022/07/29 12:51:04;;;;;;;3.83;1.65;;;;;;;;;;4878998;29;20037;-72
2022/07/29 12:53:30;;;;;;;4.47;1.88;;;;;;;;;;4878824;29;20505;-72
2022/07/29 12:55:59;;;;;;;3.33;1.52;;;;;;;;;;4878901;29;20025;-72
2022/07/29 12:58:33;;;;;;;3.47;2.08;;;;;;;;;;4878857;29;20039;-74
2022/07/29 13:01:07;;;;;;;5.63;1.50;;;;;;;;;;4877929;29;20040;-73
2022/07/29 13:03:46;;;;;;;3.10;1.70;;;;;;;;;;4878199;29;20419;-72
2022/07/29 13:06:31;;;;;;;3.00;1.55;;;;;;;;;;4879682;29;20398;-71
2022/07/29 13:09:17;;;;;;;3.30;1.85;;;;;;;;;;4859017;29;20041;-72
2022/07/29 13:11:47;;;;;;;3.33;1.83;;;;;;;;;;4878788;29;20037;-71
2022/07/29 13:14:14;;;;;;;7.57;1.75;;;;;;;;;;4878551;29;20410;-71
2022/07/29 13:17:00;;;;;;;2.78;2.05;;;;;;;;;;4879158;29;20052;-72
2022/07/29 13:19:42;;;;;;;5.18;2.30;;;;;;;;;;4874830;29;20098;-72
2022/07/29 13:22:10;;;;;;;5.95;1.77;;;;;;;;;;4870808;29;20025;-72
2022/07/29 13:24:51;;;;;;;4.18;1.70;;;;;;;;;;4878694;29;20041;-72
2022/07/29 13:27:24;;;;;;;2.92;1.75;;;;;;;;;;4864847;29;20021;-71
2022/07/29 13:29:52;;;;;;;7.63;1.90;;;;;;;;;;4859833;29;20034;-73
2022/07/29 13:32:19;;;;;;;2.15;1.60;;;;;;;;;;4843396;29;20456;-72
2022/07/29 13:34:45;;;;;;;2.08;1.40;;;;;;;;;;4861726;29;20026;-72
2022/07/29 13:37:11;;;;;;;3.30;1.90;;;;;;;;;;4872897;29;20022;-71
2022/07/29 13:39:38;;;;;;;2.85;1.40;;;;;;;;;;4874329;29;20035;-71
2022/07/29 13:42:05;;;;;;;3.05;1.85;;;;;;;;;;4878493;29;20054;-71
2022/07/29 13:44:31;;;;;;;3.78;1.77;;;;;;;;;;4865253;29;20030;-71
2022/07/29 13:46:58;;;;;;;3.08;1.70;;;;;;;;;;4860149;29;20435;-71
2022/07/29 13:49:26;;;;;;;2.65;1.80;;;;;;;;;;4842596;29;20026;-72
2022/07/29 13:51:52;;;;;;;2.40;1.60;;;;;;;;;;4871378;29;20033;-72
2022/07/29 13:54:19;;;;;;;4.20;1.90;;;;;;;;;;4878429;29;20044;-72
2022/07/29 13:56:45;;;;;;;5.28;1.70;;;;;;;;;;4878471;29;20387;-72
2022/07/29 13:59:11;;;;;;;4.28;1.88;;;;;;;;;;4877073;29;20031;-72
2022/07/29 14:01:41;;;;;;;2.47;1.83;;;;;;;;;;4860850;29;20028;-74
2022/07/29 14:04:07;;;;;;;10.20;2.10;;;;;;;;;;4877900;29;20053;-74
2022/07/29 14:06:34;;;;;;;5.30;1.80;;;;;;;;;;4880838;29;20036;-74
2022/07/29 14:09:00;;;;;;;2.95;1.75;;;;;;;;;;4876332;29;20084;-75
2022/07/29 14:11:26;;;;;;;4.15;2.03;;;;;;;;;;4878554;29;20041;-75
2022/07/29 14:13:53;;;;;;;5.65;1.95;;;;;;;;;;4877242;29;20028;-76
2022/07/29 14:16:19;;;;;;;4.00;2.00;;;;;;;;;;4878460;29;20025;-73
2022/07/29 14:18:45;;;;;;;10.85;2.00;;;;;;;;;;4877499;29;20041;-73
2022/07/29 14:21:12;;;;;;;7.07;1.90;;;;;;;;;;4877650;29;20402;-73
2022/07/29 14:23:38;;;;;;;2.53;1.80;;;;;;;;;;4878475;29;20033;-73
2022/07/29 14:26:05;;;;;;;5.80;1.88;;;;;;;;;;4878015;29;20076;-74
2022/07/29 14:28:31;;;;;;;4.78;2.00;;;;;;;;;;4878000;29;20048;-73
2022/07/29 14:30:57;;;;;;;2.78;1.92;;;;;;;;;;4861482;29;20026;-73
2022/07/29 14:33:24;;;;;;;5.65;1.83;;;;;;;;;;4878150;29;20027;-73
2022/07/29 14:35:50;;;;;;;2.65;1.77;;;;;;;;;;4881320;29;20409;-75
2022/07/29 14:38:16;;;;;;;2.58;1.92;;;;;;;;;;4881730;29;20479;-73
2022/07/29 14:40:43;;;;;;;2.78;1.90;;;;;;;;;;4880474;29;20032;-73
2022/07/29 14:43:09;;;;;;;3.55;1.80;;;;;;;;;;4880884;29;20029;-73
2022/07/29 14:45:35;;;;;;;6.00;2.28;;;;;;;;;;4881627;29;20037;-75
2022/07/29 14:48:02;;;;;;;3.47;2.28;;;;;;;;;;4881439;29;20055;-74
2022/07/29 14:50:28;;;;;;;3.58;1.90;;;;;;;;;;4880674;29;20039;-73
2022/07/29 14:52:55;;;;;;;2.47;1.75;;;;;;;;;;4879809;29;20051;-73
2022/07/29 14:55:21;;;;;;;5.13;1.85;;;;;;;;;;4871205;29;20028;-73